sensor_id;sensor_type;location;lat;lon;timestamp;temperature;humidity
28069;DHT22;15382;47.578;8.086;2023-07-31T00:08:54;13.70;99.90
28069;DHT22;15382;47.578;8.086;2023-07-31T00:18:54;13.60;99.90
28069;DHT22;15382;47.578;8.086;2023-07-31T00:28:56;13.40;99.90
28069;DHT22;15382;47.578;8.086;2023-07-31T00:38:57;13.50;99.90
28069;DHT22;15382;47.578;8.086;2023-07-31T00:48:58;13.60;99.90
28069;DHT22;15382;47.578;8.086;2023-07-31T00:58:59;13.30;99.90
28069;DHT22;15382;47.578;8.086;2023-07-31T01:19:01;13.00;99.90
28069;DHT22;15382;47.578;8.086;2023-07-31T01:39:06;12.70;99.90
28069;DHT22;15382;47.578;8.086;2023-07-31T01:49:06;12.80;99.90
28069;DHT22;15382;47.578;8.086;2023-07-31T01:59:07;12.70;99.90
28069;DHT22;15382;47.578;8.086;2023-07-31T02:09:08;12.40;99.90
28069;DHT22;15382;47.578;8.086;2023-07-31T02:19:08;12.30;99.90
28069;DHT22;15382;47.578;8.086;2023-07-31T02:29:09;12.30;99.90
28069;DHT22;15382;47.578;8.086;2023-07-31T02:39:10;12.20;99.90
28069;DHT22;15382;47.578;8.086;2023-07-31T02:49:10;12.10;99.90
28069;DHT22;15382;47.578;8.086;2023-07-31T02:59:11;11.90;99.90
28069;DHT22;15382;47.578;8.086;2023-07-31T03:09:12;12.00;99.90
28069;DHT22;15382;47.578;8.086;2023-07-31T03:19:12;12.10;99.90
28069;DHT22;15382;47.578;8.086;2023-07-31T03:29:13;12.20;99.90
28069;DHT22;15382;47.578;8.086;2023-07-31T03:39:14;11.90;99.90
28069;DHT22;15382;47.578;8.086;2023-07-31T03:49:15;11.80;99.90
28069;DHT22;15382;47.578;8.086;2023-07-31T03:59:15;11.90;99.90
28069;DHT22;15382;47.578;8.086;2023-07-31T04:09:16;11.90;99.90
28069;DHT22;15382;47.578;8.086;2023-07-31T04:19:17;11.90;99.90
28069;DHT22;15382;47.578;8.086;2023-07-31T04:29:17;11.90;99.90
28069;DHT22;15382;47.578;8.086;2023-07-31T04:39:18;11.90;99.90
28069;DHT22;15382;47.578;8.086;2023-07-31T04:49:19;12.10;99.90
28069;DHT22;15382;47.578;8.086;2023-07-31T04:59:19;12.40;99.90
28069;DHT22;15382;47.578;8.086;2023-07-31T05:09:20;12.70;99.90
28069;DHT22;15382;47.578;8.086;2023-07-31T05:19:21;13.00;99.90
28069;DHT22;15382;47.578;8.086;2023-07-31T05:29:21;13.20;99.90
28069;DHT22;15382;47.578;8.086;2023-07-31T05:39:22;13.30;99.90
28069;DHT22;15382;47.578;8.086;2023-07-31T05:49:22;13.40;99.90
28069;DHT22;15382;47.578;8.086;2023-07-31T05:59:23;13.50;99.90
28069;DHT22;15382;47.578;8.086;2023-07-31T06:09:24;13.60;99.90
28069;DHT22;15382;47.578;8.086;2023-07-31T06:19:25;14.00;99.90
28069;DHT22;15382;47.578;8.086;2023-07-31T06:29:25;14.40;99.90
28069;DHT22;15382;47.578;8.086;2023-07-31T06:39:26;14.70;99.90
28069;DHT22;15382;47.578;8.086;2023-07-31T06:49:26;15.70;99.90
28069;DHT22;15382;47.578;8.086;2023-07-31T06:59:27;15.80;99.90
28069;DHT22;15382;47.578;8.086;2023-07-31T07:09:28;15.90;99.90
28069;DHT22;15382;47.578;8.086;2023-07-31T07:19:28;16.10;99.90
28069;DHT22;15382;47.578;8.086;2023-07-31T07:29:29;16.60;99.90
28069;DHT22;15382;47.578;8.086;2023-07-31T07:39:30;16.70;99.90
28069;DHT22;15382;47.578;8.086;2023-07-31T07:49:30;17.10;99.90
28069;DHT22;15382;47.578;8.086;2023-07-31T07:59:31;18.10;99.90
28069;DHT22;15382;47.578;8.086;2023-07-31T08:09:32;17.60;99.90
28069;DHT22;15382;47.578;8.086;2023-07-31T08:19:32;17.60;99.90
28069;DHT22;15382;47.578;8.086;2023-07-31T08:29:33;18.40;99.90
28069;DHT22;15382;47.578;8.086;2023-07-31T08:39:33;19.60;99.90
28069;DHT22;15382;47.578;8.086;2023-07-31T08:49:34;19.20;99.90
28069;DHT22;15382;47.578;8.086;2023-07-31T08:59:35;19.70;99.90
28069;DHT22;15382;47.578;8.086;2023-07-31T09:09:36;20.10;99.90
28069;DHT22;15382;47.578;8.086;2023-07-31T09:19:37;21.20;99.90
28069;DHT22;15382;47.578;8.086;2023-07-31T09:29:38;21.40;99.90
28069;DHT22;15382;47.578;8.086;2023-07-31T09:39:45;22.00;99.90
28069;DHT22;15382;47.578;8.086;2023-07-31T09:49:46;22.80;99.90
28069;DHT22;15382;47.578;8.086;2023-07-31T09:59:47;23.40;99.90
28069;DHT22;15382;47.578;8.086;2023-07-31T10:09:48;22.50;99.90
28069;DHT22;15382;47.578;8.086;2023-07-31T10:19:49;22.00;99.90
28069;DHT22;15382;47.578;8.086;2023-07-31T10:29:50;21.60;99.90
28069;DHT22;15382;47.578;8.086;2023-07-31T10:50:25;22.00;99.90
28069;DHT22;15382;47.578;8.086;2023-07-31T11:10:27;23.30;99.90
28069;DHT22;15382;47.578;8.086;2023-07-31T11:20:29;23.90;99.90
28069;DHT22;15382;47.578;8.086;2023-07-31T11:30:29;24.50;99.90
28069;DHT22;15382;47.578;8.086;2023-07-31T11:40:30;23.30;99.90
28069;DHT22;15382;47.578;8.086;2023-07-31T11:50:32;23.50;99.90
28069;DHT22;15382;47.578;8.086;2023-07-31T12:00:33;25.10;99.90
28069;DHT22;15382;47.578;8.086;2023-07-31T12:10:34;25.40;99.90
28069;DHT22;15382;47.578;8.086;2023-07-31T12:20:35;25.20;99.90
28069;DHT22;15382;47.578;8.086;2023-07-31T12:30:35;26.10;99.90
28069;DHT22;15382;47.578;8.086;2023-07-31T12:40:37;24.50;99.90
28069;DHT22;15382;47.578;8.086;2023-07-31T12:50:39;25.30;99.90
28069;DHT22;15382;47.578;8.086;2023-07-31T13:00:39;25.20;99.90
28069;DHT22;15382;47.578;8.086;2023-07-31T13:10:40;24.70;99.90
28069;DHT22;15382;47.578;8.086;2023-07-31T13:20:41;25.80;99.90
28069;DHT22;15382;47.578;8.086;2023-07-31T13:30:41;25.20;99.90
28069;DHT22;15382;47.578;8.086;2023-07-31T13:40:42;25.40;99.90
28069;DHT22;15382;47.578;8.086;2023-07-31T13:50:44;25.40;99.90
28069;DHT22;15382;47.578;8.086;2023-07-31T14:00:45;25.70;99.90
28069;DHT22;15382;47.578;8.086;2023-07-31T14:10:45;25.50;99.90
28069;DHT22;15382;47.578;8.086;2023-07-31T14:20:46;25.90;99.90
28069;DHT22;15382;47.578;8.086;2023-07-31T14:30:47;26.00;99.90
28069;DHT22;15382;47.578;8.086;2023-07-31T14:40:47;26.40;99.90
28069;DHT22;15382;47.578;8.086;2023-07-31T14:50:48;25.40;99.90
28069;DHT22;15382;47.578;8.086;2023-07-31T15:00:49;25.60;99.90
28069;DHT22;15382;47.578;8.086;2023-07-31T15:10:49;25.80;99.90
28069;DHT22;15382;47.578;8.086;2023-07-31T15:20:51;26.90;99.90
28069;DHT22;15382;47.578;8.086;2023-07-31T15:30:52;26.50;99.90
28069;DHT22;15382;47.578;8.086;2023-07-31T15:40:53;25.80;99.90
28069;DHT22;15382;47.578;8.086;2023-07-31T15:50:53;25.70;99.90
28069;DHT22;15382;47.578;8.086;2023-07-31T16:00:54;25.20;99.90
28069;DHT22;15382;47.578;8.086;2023-07-31T16:10:55;25.30;99.90
28069;DHT22;15382;47.578;8.086;2023-07-31T16:20:56;25.30;99.90
28069;DHT22;15382;47.578;8.086;2023-07-31T16:30:57;24.90;99.90
28069;DHT22;15382;47.578;8.086;2023-07-31T16:40:57;24.60;99.90
28069;DHT22;15382;47.578;8.086;2023-07-31T16:50:58;24.40;99.90
28069;DHT22;15382;47.578;8.086;2023-07-31T17:00:59;24.70;99.90
28069;DHT22;15382;47.578;8.086;2023-07-31T17:11:01;24.80;99.90
28069;DHT22;15382;47.578;8.086;2023-07-31T17:21:01;24.40;99.90
28069;DHT22;15382;47.578;8.086;2023-07-31T17:31:02;24.10;99.90
28069;DHT22;15382;47.578;8.086;2023-07-31T17:41:02;24.10;99.90
28069;DHT22;15382;47.578;8.086;2023-07-31T17:51:03;23.90;99.90
28069;DHT22;15382;47.578;8.086;2023-07-31T18:01:04;23.50;99.90
28069;DHT22;15382;47.578;8.086;2023-07-31T18:11:04;23.10;99.90
28069;DHT22;15382;47.578;8.086;2023-07-31T18:21:05;22.80;99.90
28069;DHT22;15382;47.578;8.086;2023-07-31T18:31:06;22.50;99.90
28069;DHT22;15382;47.578;8.086;2023-07-31T18:41:07;22.30;99.90
28069;DHT22;15382;47.578;8.086;2023-07-31T18:51:07;22.10;99.90
28069;DHT22;15382;47.578;8.086;2023-07-31T19:01:08;21.70;99.90
28069;DHT22;15382;47.578;8.086;2023-07-31T19:11:09;21.60;99.90
28069;DHT22;15382;47.578;8.086;2023-07-31T19:21:11;21.20;99.90
28069;DHT22;15382;47.578;8.086;2023-07-31T19:31:12;21.00;99.90
28069;DHT22;15382;47.578;8.086;2023-07-31T19:41:13;20.80;99.90
28069;DHT22;15382;47.578;8.086;2023-07-31T19:51:15;20.40;99.90
28069;DHT22;15382;47.578;8.086;2023-07-31T20:01:16;20.30;99.90
28069;DHT22;15382;47.578;8.086;2023-07-31T20:11:16;20.00;99.90
28069;DHT22;15382;47.578;8.086;2023-07-31T20:21:17;19.90;99.90
28069;DHT22;15382;47.578;8.086;2023-07-31T20:31:18;19.80;99.90
28069;DHT22;15382;47.578;8.086;2023-07-31T20:41:18;19.60;99.90
28069;DHT22;15382;47.578;8.086;2023-07-31T20:51:19;19.20;99.90
28069;DHT22;15382;47.578;8.086;2023-07-31T21:01:20;19.10;99.90
28069;DHT22;15382;47.578;8.086;2023-07-31T21:11:21;19.20;99.90
28069;DHT22;15382;47.578;8.086;2023-07-31T21:21:22;19.10;99.90
28069;DHT22;15382;47.578;8.086;2023-07-31T21:31:22;19.20;99.90
28069;DHT22;15382;47.578;8.086;2023-07-31T21:41:23;19.00;99.90
28069;DHT22;15382;47.578;8.086;2023-07-31T21:51:24;19.10;99.90
28069;DHT22;15382;47.578;8.086;2023-07-31T22:01:24;19.00;99.90
28069;DHT22;15382;47.578;8.086;2023-07-31T22:11:25;18.70;99.90
28069;DHT22;15382;47.578;8.086;2023-07-31T22:21:26;18.70;99.90
28069;DHT22;15382;47.578;8.086;2023-07-31T22:31:26;18.70;99.90
28069;DHT22;15382;47.578;8.086;2023-07-31T22:41:27;18.70;99.90
28069;DHT22;15382;47.578;8.086;2023-07-31T22:51:28;18.40;99.90
28069;DHT22;15382;47.578;8.086;2023-07-31T23:01:28;18.60;99.90
28069;DHT22;15382;47.578;8.086;2023-07-31T23:11:29;18.60;99.90
28069;DHT22;15382;47.578;8.086;2023-07-31T23:21:29;18.60;99.90
28069;DHT22;15382;47.578;8.086;2023-07-31T23:31:30;17.70;99.90
28069;DHT22;15382;47.578;8.086;2023-07-31T23:41:31;17.60;99.90
28069;DHT22;15382;47.578;8.086;2023-07-31T23:51:31;17.70;99.90
